Time;durP1;ratioP1;P1;durP2;ratioP2;P2;SDS_P1;SDS_P2;PMS_P1;PMS_P2;Temp;Humidity;BMP_temperature;BMP_pressure;BME280_temperature;BME280_humidity;BME280_pressure;Samples;Min_cycle;Max_cycle;Signal;HPM_P1;HPM_P2
2021/10/02 04:01:51;;;;;;;57.37;16.10;;;12.00;99.70;;;;;;5051677;28;20600;-65
2021/10/02 04:04:18;;;;;;;58.20;15.63;;;12.10;99.70;;;;;;5051258;28;20201;-64
2021/10/02 04:06:45;;;;;;;58.63;16.80;;;12.10;99.70;;;;;;5050658;28;20475;-64
2021/10/02 04:09:12;;;;;;;57.30;15.37;;;12.10;99.70;;;;;;5051298;28;20497;-65
2021/10/02 04:11:39;;;;;;;54.67;14.30;;;12.00;99.70;;;;;;5051228;28;20954;-64
2021/10/02 04:14:05;;;;;;;60.60;14.53;;;12.20;99.70;;;;;;5051067;28;20438;-65
2021/10/02 04:16:32;;;;;;;61.10;17.10;;;12.20;99.70;;;;;;5050450;28;20528;-64
2021/10/02 04:19:01;;;;;;;58.13;14.67;;;12.30;99.70;;;;;;5051007;28;20483;-64
2021/10/02 04:21:28;;;;;;;62.37;16.80;;;12.30;99.70;;;;;;5051251;28;20451;-65
2021/10/02 04:23:54;;;;;;;55.97;14.23;;;12.40;99.70;;;;;;5050817;28;20448;-64
2021/10/02 04:26:22;;;;;;;56.00;14.50;;;12.40;99.70;;;;;;5050580;28;20848;-64
2021/10/02 04:28:49;;;;;;;57.07;13.70;;;12.40;99.70;;;;;;5050755;28;20451;-64
2021/10/02 04:31:16;;;;;;;57.07;13.53;;;12.40;99.70;;;;;;5049722;28;20443;-64
2021/10/02 04:33:43;;;;;;;59.13;14.70;;;12.40;99.70;;;;;;5050641;28;20454;-64
2021/10/02 04:36:11;;;;;;;57.80;13.50;;;12.40;99.70;;;;;;5050436;28;20460;-64
2021/10/02 04:38:38;;;;;;;57.83;15.83;;;12.40;99.70;;;;;;5050666;28;21008;-64
2021/10/02 04:41:05;;;;;;;55.77;13.37;;;12.40;99.70;;;;;;5050843;28;20447;-65
2021/10/02 04:43:33;;;;;;;56.87;14.20;;;12.40;99.70;;;;;;5050628;28;21024;-65
2021/10/02 04:46:00;;;;;;;57.37;14.30;;;12.40;99.70;;;;;;5050150;28;20472;-63
2021/10/02 04:48:28;;;;;;;57.47;13.90;;;12.30;99.70;;;;;;5050610;28;20473;-64
2021/10/02 04:50:55;;;;;;;56.13;13.87;;;12.40;99.70;;;;;;5050671;28;20448;-64
2021/10/02 04:53:23;;;;;;;67.20;15.30;;;12.50;99.70;;;;;;5050626;28;20455;-64
2021/10/02 04:55:49;;;;;;;60.37;17.03;;;12.40;99.70;;;;;;5050592;28;20448;-65
2021/10/02 04:58:16;;;;;;;62.53;16.67;;;12.30;99.70;;;;;;5049954;28;20850;-64
2021/10/02 05:00:43;;;;;;;58.20;16.43;;;12.20;99.70;;;;;;5050299;28;20450;-64
2021/10/02 05:03:09;;;;;;;60.10;17.20;;;12.20;99.70;;;;;;5050477;28;20443;-64
2021/10/02 05:05:36;;;;;;;63.23;17.70;;;12.20;99.70;;;;;;5050247;28;20443;-65
2021/10/02 05:08:03;;;;;;;66.03;18.10;;;12.20;99.70;;;;;;5050328;28;20861;-64
2021/10/02 05:10:31;;;;;;;58.73;14.07;;;12.20;99.70;;;;;;5050433;28;20803;-64
2021/10/02 05:12:57;;;;;;;66.40;15.30;;;12.20;99.70;;;;;;5050347;28;20447;-65
2021/10/02 05:15:24;;;;;;;62.60;17.70;;;12.20;99.70;;;;;;5050107;28;20447;-64
2021/10/02 05:17:51;;;;;;;58.37;16.10;;;12.20;99.70;;;;;;5049650;28;20479;-65
2021/10/02 05:20:17;;;;;;;67.73;19.00;;;12.30;99.70;;;;;;5050191;28;20484;-65
2021/10/02 05:22:44;;;;;;;76.97;22.73;;;12.20;99.70;;;;;;5050178;28;20475;-64
2021/10/02 05:25:11;;;;;;;89.47;30.10;;;12.20;99.70;;;;;;5049682;28;20952;-65
2021/10/02 05:27:39;;;;;;;68.77;20.63;;;12.10;99.70;;;;;;5049356;28;20460;-64
2021/10/02 05:30:06;;;;;;;91.50;24.97;;;12.00;99.70;;;;;;5048570;28;20871;-64
2021/10/02 05:32:33;;;;;;;76.10;23.90;;;12.10;99.70;;;;;;5049860;28;20466;-64
2021/10/02 05:35:00;;;;;;;76.83;22.73;;;12.00;99.70;;;;;;5049385;28;21297;-64
2021/10/02 05:37:26;;;;;;;68.80;21.70;;;12.00;99.70;;;;;;5049183;28;20890;-64
2021/10/02 05:39:53;;;;;;;64.07;21.40;;;12.00;99.70;;;;;;5049669;28;20551;-65
2021/10/02 05:42:20;;;;;;;62.37;19.43;;;12.20;99.70;;;;;;5049600;28;20451;-65
2021/10/02 05:44:48;;;;;;;88.90;26.73;;;12.20;99.70;;;;;;5049284;28;20448;-64
2021/10/02 05:47:14;;;;;;;66.77;21.67;;;12.20;99.70;;;;;;5048911;28;20522;-65
2021/10/02 05:49:42;;;;;;;63.63;16.17;;;12.40;99.70;;;;;;5049449;28;20443;-64
2021/10/02 05:52:10;;;;;;;72.80;19.53;;;12.40;99.70;;;;;;5049584;28;20473;-64
2021/10/02 05:54:37;;;;;;;71.30;20.57;;;12.40;99.70;;;;;;5049486;28;20968;-64
2021/10/02 05:57:04;;;;;;;62.77;18.57;;;12.40;99.70;;;;;;5048723;28;20472;-64
2021/10/02 05:59:30;;;;;;;58.70;14.33;;;12.40;99.70;;;;;;5049356;28;20831;-64
2021/10/02 06:01:58;;;;;;;60.37;13.57;;;12.50;99.70;;;;;;5049361;28;20452;-64
2021/10/02 06:04:25;;;;;;;59.67;13.53;;;12.50;99.70;;;;;;5049098;28;20976;-64
2021/10/02 06:06:52;;;;;;;59.20;13.70;;;12.50;99.70;;;;;;5048552;28;20471;-64
2021/10/02 06:09:19;;;;;;;63.47;14.37;;;12.60;99.70;;;;;;5049256;28;20439;-65
2021/10/02 06:11:45;;;;;;;57.10;14.37;;;12.70;99.70;;;;;;5048583;28;20439;-64
2021/10/02 06:14:13;;;;;;;63.57;13.17;;;12.80;99.70;;;;;;5049089;28;20749;-64
2021/10/02 06:16:40;;;;;;;57.57;13.33;;;12.90;99.70;;;;;;5048453;28;20484;-63
2021/10/02 06:19:08;;;;;;;60.80;14.90;;;12.90;99.70;;;;;;5049159;28;20486;-65
2021/10/02 06:21:36;;;;;;;57.97;13.73;;;12.90;99.70;;;;;;5049047;28;20455;-65
2021/10/02 06:24:02;;;;;;;58.70;14.00;;;12.80;99.70;;;;;;5048809;28;20864;-63
2021/10/02 06:26:31;;;;;;;60.23;15.40;;;12.80;99.70;;;;;;5048510;28;20825;-65
2021/10/02 06:28:58;;;;;;;57.87;14.00;;;12.90;99.70;;;;;;5049185;28;20568;-64
2021/10/02 06:31:25;;;;;;;57.60;14.40;;;12.80;99.70;;;;;;5047693;28;20451;-65
2021/10/02 06:33:52;;;;;;;54.80;11.80;;;12.80;99.70;;;;;;5048878;28;20451;-64
2021/10/02 06:36:20;;;;;;;58.03;13.98;;;12.80;99.70;;;;;;5048431;28;21133;-63
2021/10/02 06:38:47;;;;;;;61.40;15.37;;;13.10;99.70;;;;;;5048916;28;20216;-64
2021/10/02 06:41:14;;;;;;;57.10;13.80;;;13.00;99.70;;;;;;5048763;28;20538;-64
2021/10/02 06:43:40;;;;;;;56.70;14.73;;;13.20;99.70;;;;;;5036473;28;20453;-64
2021/10/02 06:46:07;;;;;;;57.77;16.70;;;13.00;99.70;;;;;;5038565;28;20484;-64
2021/10/02 06:48:34;;;;;;;60.10;16.60;;;12.90;99.70;;;;;;5047797;28;20454;-65
2021/10/02 06:51:01;;;;;;;59.77;16.03;;;12.90;99.70;;;;;;5049443;28;20440;-65
2021/10/02 06:53:29;;;;;;;60.17;17.80;;;12.90;99.70;;;;;;5049315;28;20881;-64
2021/10/02 06:55:55;;;;;;;58.70;16.50;;;12.90;99.70;;;;;;5049072;28;20466;-65
2021/10/02 06:58:22;;;;;;;61.03;17.77;;;12.90;99.70;;;;;;5043837;28;20459;-65
2021/10/02 07:00:48;;;;;;;58.30;15.90;;;12.90;99.70;;;;;;5041173;28;20994;-64
2021/10/02 07:03:15;;;;;;;59.50;17.27;;;13.00;99.70;;;;;;5048541;28;20821;-64
2021/10/02 07:05:42;;;;;;;59.20;18.30;;;13.00;99.70;;;;;;5048979;28;20447;-64
2021/10/02 07:08:09;;;;;;;61.80;18.17;;;13.10;99.70;;;;;;5048637;28;20443;-64
2021/10/02 07:10:37;;;;;;;64.07;17.77;;;13.10;99.70;;;;;;5047513;28;20447;-65
2021/10/02 07:13:03;;;;;;;61.83;17.47;;;13.10;99.70;;;;;;5049050;28;20452;-65
2021/10/02 07:15:30;;;;;;;59.30;19.10;;;13.30;99.70;;;;;;5048316;28;20502;-64
2021/10/02 07:17:57;;;;;;;58.13;18.97;;;13.30;99.70;;;;;;5048445;28;20484;-64
2021/10/02 07:20:25;;;;;;;61.07;17.97;;;13.30;99.70;;;;;;5048901;28;20476;-65
2021/10/02 07:22:53;;;;;;;57.90;19.10;;;13.40;99.70;;;;;;5050923;28;20455;-65
2021/10/02 07:25:21;;;;;;;59.90;20.00;;;13.50;99.70;;;;;;5052884;28;20444;-64
2021/10/02 07:27:49;;;;;;;61.60;20.37;;;13.40;99.70;;;;;;5051826;28;20558;-64
2021/10/02 07:30:16;;;;;;;60.30;20.27;;;13.50;99.70;;;;;;5052488;28;20444;-65
2021/10/02 07:32:43;;;;;;;63.33;21.77;;;13.60;99.70;;;;;;5050987;28;20506;-64
2021/10/02 07:35:12;;;;;;;61.40;21.17;;;13.60;99.70;;;;;;5032894;28;20452;-64
2021/10/02 07:37:39;;;;;;;59.40;20.57;;;13.70;99.70;;;;;;5045237;28;20989;-64
2021/10/02 07:40:09;;;;;;;56.00;18.67;;;13.90;99.70;;;;;;5052059;28;20515;-63
2021/10/02 07:42:37;;;;;;;58.50;20.20;;;14.00;99.70;;;;;;5052180;28;20448;-64
2021/10/02 07:45:07;;;;;;;59.10;21.40;;;14.00;99.70;;;;;;5052425;28;20472;-65
2021/10/02 07:47:40;;;;;;;55.60;18.30;;;14.00;99.70;;;;;;5051405;28;20491;-64
2021/10/02 07:50:09;;;;;;;59.57;18.70;;;14.10;99.70;;;;;;5052524;28;20942;-64
2021/10/02 07:52:36;;;;;;;59.13;19.37;;;14.10;99.70;;;;;;5051683;28;20439;-64
2021/10/02 07:55:04;;;;;;;56.27;17.43;;;14.20;99.70;;;;;;5052540;28;20502;-65
2021/10/02 07:57:32;;;;;;;53.90;16.20;;;14.30;99.70;;;;;;5051773;28;20468;-65
2021/10/02 07:59:59;;;;;;;56.57;18.73;;;14.40;99.70;;;;;;5052225;28;20479;-65
2021/10/02 08:02:29;;;;;;;56.10;16.43;;;14.50;99.70;;;;;;5057412;28;20835;-64
2021/10/02 08:04:56;;;;;;;55.43;17.77;;;14.70;99.70;;;;;;5055159;28;20493;-64
2021/10/02 08:07:24;;;;;;;57.40;14.13;;;14.70;99.70;;;;;;5057021;28;20483;-65
2021/10/02 08:09:53;;;;;;;57.90;16.10;;;14.80;99.70;;;;;;5051861;28;20444;-64
2021/10/02 08:12:22;;;;;;;56.70;16.40;;;14.80;99.70;;;;;;5051667;28;20451;-65
2021/10/02 08:14:49;;;;;;;54.33;13.80;;;15.00;99.70;;;;;;5051908;28;20841;-64
2021/10/02 08:17:17;;;;;;;55.23;14.10;;;15.00;99.70;;;;;;5050911;28;21008;-64
2021/10/02 08:19:46;;;;;;;53.03;13.77;;;15.10;99.70;;;;;;5052055;28;20479;-64
2021/10/02 08:22:14;;;;;;;54.30;13.97;;;15.20;99.70;;;;;;5051536;28;20471;-64
2021/10/02 08:24:42;;;;;;;53.00;12.53;;;15.50;99.70;;;;;;5052095;28;20517;-65
2021/10/02 08:27:10;;;;;;;52.30;10.63;;;15.80;99.70;;;;;;5051250;28;20536;-65
2021/10/02 08:29:40;;;;;;;49.80;9.93;;;16.00;99.70;;;;;;5049714;28;20467;-64
2021/10/02 08:32:07;;;;;;;50.73;9.63;;;16.30;99.70;;;;;;5050860;28;20482;-64
2021/10/02 08:34:34;;;;;;;48.57;9.00;;;16.60;99.70;;;;;;5050976;28;20440;-65
2021/10/02 08:37:02;;;;;;;49.63;10.30;;;16.60;99.70;;;;;;5051151;28;20581;-64
2021/10/02 08:39:29;;;;;;;48.30;9.53;;;16.60;99.70;;;;;;5051406;28;20852;-65
2021/10/02 08:41:56;;;;;;;50.30;9.50;;;16.50;99.70;;;;;;5050895;28;20444;-65
2021/10/02 08:44:24;;;;;;;49.27;9.13;;;16.50;99.70;;;;;;5051573;28;20845;-64
2021/10/02 08:46:52;;;;;;;48.37;9.27;;;16.60;99.70;;;;;;5049767;28;20460;-64
2021/10/02 08:49:39;;;;;;;47.90;8.80;;;16.70;99.70;;;;;;5051556;28;20448;-65
2021/10/02 08:52:07;;;;;;;46.90;9.83;;;16.90;99.70;;;;;;5051056;28;20451;-64
2021/10/02 08:54:36;;;;;;;48.17;9.20;;;17.20;99.70;;;;;;5051217;28;20439;-64
2021/10/02 08:57:06;;;;;;;46.00;9.10;;;17.40;99.70;;;;;;5050462;28;20467;-65
2021/10/02 08:59:33;;;;;;;44.47;8.23;;;17.40;99.70;;;;;;5051214;28;20475;-65
2021/10/02 09:02:00;;;;;;;48.77;9.87;;;17.40;99.70;;;;;;5044170;28;20509;-65
2021/10/02 09:04:27;;;;;;;46.37;8.30;;;17.60;99.70;;;;;;5050854;28;20455;-65
2021/10/02 09:06:53;;;;;;;48.97;8.43;;;17.80;99.70;;;;;;5050343;28;20472;-65
2021/10/02 09:09:22;;;;;;;49.90;10.63;;;18.00;99.70;;;;;;5048224;28;20502;-65
2021/10/02 09:11:51;;;;;;;44.80;7.63;;;18.30;99.70;;;;;;5052629;28;20447;-65
2021/10/02 09:14:18;;;;;;;47.23;8.43;;;18.40;99.70;;;;;;5059236;28;21077;-65
2021/10/02 09:16:45;;;;;;;46.00;7.90;;;18.70;99.70;;;;;;5057288;28;20482;-65
2021/10/02 09:19:12;;;;;;;45.37;7.40;;;19.10;99.70;;;;;;5055035;28;20800;-65
2021/10/02 09:21:43;;;;;;;44.90;6.60;;;19.40;99.70;;;;;;5049169;28;20822;-65
2021/10/02 09:24:22;;;;;;;43.13;6.83;;;19.50;99.70;;;;;;5058433;28;20443;-65
2021/10/02 09:26:49;;;;;;;45.27;7.23;;;19.60;99.70;;;;;;5056574;28;20459;-65
2021/10/02 09:29:17;;;;;;;44.20;7.33;;;19.70;99.70;;;;;;5056155;28;20986;-65
2021/10/02 09:31:44;;;;;;;43.30;6.60;;;19.70;99.70;;;;;;5054408;28;20449;-65
2021/10/02 09:34:22;;;;;;;43.07;6.73;;;19.60;99.70;;;;;;5060563;28;20439;-64
2021/10/02 09:36:49;;;;;;;43.43;5.60;;;19.50;99.70;;;;;;5056388;28;20835;-65
2021/10/02 09:39:17;;;;;;;41.63;5.67;;;19.90;99.70;;;;;;5060135;28;20436;-65
2021/10/02 09:41:53;;;;;;;40.60;5.57;;;20.30;99.70;;;;;;5058278;28;20435;-65
2021/10/02 09:44:24;;;;;;;40.83;6.13;;;20.90;99.70;;;;;;5055979;28;20434;-65
2021/10/02 09:46:51;;;;;;;42.33;6.00;;;21.00;98.70;;;;;;5058628;28;20454;-64
2021/10/02 09:49:18;;;;;;;43.13;6.17;;;20.60;99.40;;;;;;5057131;28;20444;-65
2021/10/02 09:51:46;;;;;;;42.80;5.77;;;20.40;99.70;;;;;;5044810;28;20471;-65
2021/10/02 09:54:34;;;;;;;41.73;5.80;;;20.30;99.70;;;;;;5047389;28;20450;-65
2021/10/02 09:57:20;;;;;;;44.73;6.57;;;20.00;99.70;;;;;;5029432;28;20468;-65
2021/10/02 09:59:47;;;;;;;43.20;6.80;;;19.90;99.70;;;;;;5040381;28;20487;-66
2021/10/02 10:02:16;;;;;;;43.00;6.50;;;19.70;99.70;;;;;;5036181;28;20947;-63
2021/10/02 10:04:51;;;;;;;43.20;6.73;;;19.60;99.70;;;;;;5048980;28;20872;-64
2021/10/02 10:07:18;;;;;;;44.03;6.37;;;19.30;99.70;;;;;;5048237;28;20455;-65
2021/10/02 10:10:00;;;;;;;47.77;8.80;;;19.30;99.70;;;;;;5049813;28;20876;-65
2021/10/02 10:12:28;;;;;;;43.80;7.20;;;19.30;99.70;;;;;;5046533;28;20484;-65
2021/10/02 10:14:55;;;;;;;45.70;8.70;;;19.20;99.70;;;;;;5049258;28;20452;-65
2021/10/02 10:17:22;;;;;;;46.20;8.20;;;19.20;99.70;;;;;;5049094;28;20475;-65
2021/10/02 10:20:00;;;;;;;45.00;7.60;;;19.00;99.70;;;;;;5049616;28;20483;-65
2021/10/02 10:22:27;;;;;;;43.27;7.70;;;19.20;99.70;;;;;;5049182;28;20452;-65
2021/10/02 10:24:55;;;;;;;45.67;8.27;;;19.20;99.70;;;;;;5049337;28;20439;-64
2021/10/02 10:27:38;;;;;;;46.40;8.00;;;19.20;99.70;;;;;;5048973;28;20466;-65
2021/10/02 10:30:13;;;;;;;44.10;7.30;;;19.10;99.70;;;;;;5049102;28;20440;-65
2021/10/02 10:32:54;;;;;;;42.93;8.20;;;19.10;99.70;;;;;;5049281;28;20450;-64
2021/10/02 10:35:22;;;;;;;43.20;7.20;;;19.10;99.70;;;;;;5049235;28;20448;-65
2021/10/02 10:37:48;;;;;;;45.30;9.30;;;19.20;99.70;;;;;;5049226;28;20470;-65
2021/10/02 10:40:15;;;;;;;43.23;7.63;;;19.10;99.70;;;;;;5049439;28;20490;-64
2021/10/02 10:42:43;;;;;;;43.60;7.50;;;19.00;99.70;;;;;;5054565;28;20455;-66
2021/10/02 10:45:10;;;;;;;44.57;7.87;;;19.20;99.70;;;;;;5048056;28;20479;-64
2021/10/02 10:47:37;;;;;;;43.77;8.20;;;19.20;99.70;;;;;;5037495;28;20468;-64
2021/10/02 10:50:05;;;;;;;45.77;8.37;;;19.00;99.70;;;;;;5041516;28;20448;-64
2021/10/02 10:52:36;;;;;;;45.10;8.90;;;19.20;99.70;;;;;;5043261;28;20459;-65
2021/10/02 10:55:11;;;;;;;45.00;8.53;;;19.30;99.70;;;;;;5038093;28;20448;-64
2021/10/02 10:57:41;;;;;;;46.37;8.80;;;19.20;99.70;;;;;;5032620;28;20467;-65
2021/10/02 11:00:13;;;;;;;46.50;8.50;;;19.10;99.70;;;;;;5043076;28;20484;-64
2021/10/02 11:02:49;;;;;;;47.10;9.23;;;19.20;99.70;;;;;;5044054;28;20456;-65
2021/10/02 11:06:00;;;;;;;45.70;8.23;;;19.30;99.70;;;;;;5044156;28;20447;-64
2021/10/02 11:08:56;;;;;;;46.70;10.37;;;19.40;99.70;;;;;;5033259;28;20444;-65
2021/10/02 11:11:54;;;;;;;48.50;10.57;;;19.30;99.70;;;;;;5036807;28;20454;-65
2021/10/02 11:14:23;;;;;;;48.63;10.10;;;19.30;99.70;;;;;;5046210;28;20535;-65
2021/10/02 11:17:00;;;;;;;47.57;10.40;;;19.10;99.70;;;;;;5045503;28;20514;-64
2021/10/02 11:19:34;;;;;;;46.07;10.43;;;19.20;99.70;;;;;;5044261;28;20451;-64
2021/10/02 11:22:07;;;;;;;48.00;10.90;;;19.40;99.70;;;;;;5046493;28;20540;-65
2021/10/02 11:24:35;;;;;;;45.67;11.00;;;19.60;99.70;;;;;;5034760;28;20452;-65
2021/10/02 11:27:02;;;;;;;45.17;9.60;;;19.40;99.70;;;;;;5036614;28;20472;-64
2021/10/02 11:29:31;;;;;;;44.13;8.00;;;19.50;99.70;;;;;;5041321;28;20455;-64
2021/10/02 11:32:23;;;;;;;44.27;8.90;;;19.50;99.70;;;;;;5038794;28;20444;-65
2021/10/02 11:35:21;;;;;;;44.50;7.97;;;19.60;99.70;;;;;;5037910;28;20477;-65
2021/10/02 11:37:52;;;;;;;45.27;8.63;;;19.70;99.70;;;;;;4987688;28;20466;-64
2021/10/02 11:40:46;;;;;;;46.80;11.00;;;19.80;99.70;;;;;;5033415;28;20490;-64
2021/10/02 11:43:27;;;;;;;46.40;10.77;;;19.80;99.70;;;;;;5039375;28;20455;-65
2021/10/02 11:45:56;;;;;;;45.13;8.90;;;19.50;99.70;;;;;;5052657;28;20509;-64
2021/10/02 11:48:35;;;;;;;44.37;9.00;;;19.60;99.70;;;;;;5051802;28;20448;-65
2021/10/02 11:51:27;;;;;;;45.10;9.20;;;19.70;99.70;;;;;;5052276;28;20497;-65
2021/10/02 11:53:57;;;;;;;46.50;8.53;;;19.80;99.70;;;;;;5052153;28;20440;-66
2021/10/02 11:56:25;;;;;;;44.33;9.47;;;20.10;99.70;;;;;;5043837;28;20852;-66
2021/10/02 11:58:55;;;;;;;47.80;11.23;;;20.10;99.70;;;;;;5043488;28;20449;-66
2021/10/02 12:01:24;;;;;;;48.37;11.27;;;19.90;99.70;;;;;;5040472;28;20484;-66
2021/10/02 12:04:02;;;;;;;43.80;8.20;;;19.90;99.70;;;;;;5043076;28;20444;-65
2021/10/02 12:06:30;;;;;;;43.67;8.07;;;20.10;99.70;;;;;;5048913;28;20478;-66
2021/10/02 12:08:58;;;;;;;42.83;7.80;;;20.10;99.70;;;;;;5050313;28;20447;-66
2021/10/02 12:11:25;;;;;;;43.40;7.97;;;20.20;99.70;;;;;;5052010;28;20444;-66
2021/10/02 12:13:54;;;;;;;46.90;11.37;;;20.10;99.70;;;;;;5051903;28;20462;-65
2021/10/02 12:16:22;;;;;;;44.13;8.83;;;20.20;99.70;;;;;;5051436;28;20488;-66
2021/10/02 12:19:05;;;;;;;46.23;8.33;;;20.20;99.70;;;;;;5052177;28;20444;-65
2021/10/02 12:21:36;;;;;;;45.03;8.10;;;20.40;99.70;;;;;;5051588;28;20576;-66
2021/10/02 12:24:08;;;;;;;46.33;8.53;;;20.30;99.70;;;;;;5051796;28;20452;-66
2021/10/02 12:26:45;;;;;;;44.70;10.10;;;20.20;99.70;;;;;;5050678;28;20463;-64
2021/10/02 12:29:15;;;;;;;43.20;7.37;;;20.30;99.70;;;;;;5056114;28;20444;-65
2021/10/02 12:31:43;;;;;;;43.13;7.83;;;20.20;99.70;;;;;;5051252;28;20450;-65
2021/10/02 12:34:14;;;;;;;43.60;8.23;;;20.20;99.70;;;;;;5051411;28;20450;-65
2021/10/02 12:36:43;;;;;;;44.50;8.37;;;20.20;99.70;;;;;;5051356;28;20466;-65
2021/10/02 12:39:11;;;;;;;44.97;8.33;;;20.20;99.70;;;;;;5061124;28;20892;-65
2021/10/02 12:41:42;;;;;;;49.80;9.53;;;20.10;99.70;;;;;;5058911;28;20495;-66
2021/10/02 12:44:20;;;;;;;46.80;9.60;;;20.10;99.70;;;;;;5056695;28;20447;-65
2021/10/02 12:46:47;;;;;;;45.77;9.00;;;20.20;99.70;;;;;;5051589;28;20476;-65
2021/10/02 12:49:15;;;;;;;44.70;7.90;;;20.20;99.70;;;;;;5060008;28;20447;-65
2021/10/02 12:51:43;;;;;;;43.30;7.70;;;20.10;99.70;;;;;;5060677;28;20442;-66
2021/10/02 12:54:11;;;;;;;46.77;9.60;;;20.10;99.70;;;;;;5058364;28;20942;-65
2021/10/02 12:56:57;;;;;;;45.57;9.93;;;20.10;99.70;;;;;;5057784;28;20829;-65
2021/10/02 12:59:24;;;;;;;45.13;8.90;;;20.10;99.70;;;;;;5056880;28;20574;-66
2021/10/02 13:01:51;;;;;;;44.90;9.40;;;20.00;99.70;;;;;;5063900;28;20518;-66
2021/10/02 13:04:20;;;;;;;46.10;10.07;;;20.00;99.70;;;;;;5050587;28;20452;-63
2021/10/02 13:06:52;;;;;;;43.90;9.53;;;20.20;99.70;;;;;;5046251;28;20467;-65
2021/10/02 13:09:19;;;;;;;44.60;8.90;;;20.30;99.70;;;;;;5036061;28;20448;-65
2021/10/02 13:11:46;;;;;;;47.80;11.17;;;20.40;99.70;;;;;;5032179;28;20437;-65
2021/10/02 13:14:28;;;;;;;44.80;10.80;;;20.40;99.70;;;;;;5049969;28;20943;-66
2021/10/02 13:16:59;;;;;;;47.20;8.60;;;20.50;99.70;;;;;;5044347;28;20823;-66
2021/10/02 13:19:29;;;;;;;47.17;10.50;;;20.40;99.70;;;;;;5049290;28;20458;-65
2021/10/02 13:22:16;;;;;;;43.63;7.83;;;20.50;99.70;;;;;;5049069;28;20483;-64
2021/10/02 13:25:08;;;;;;;45.23;9.33;;;20.50;99.70;;;;;;5030354;28;20444;-66
2021/10/02 13:27:37;;;;;;;45.20;8.63;;;20.70;99.70;;;;;;5029499;28;20500;-65
2021/10/02 13:30:11;;;;;;;48.50;8.03;;;21.10;98.90;;;;;;5030250;28;20836;-65
2021/10/02 13:32:38;;;;;;;43.60;7.77;;;21.10;99.50;;;;;;5034304;28;21112;-64
2021/10/02 13:35:09;;;;;;;43.23;8.77;;;21.10;99.10;;;;;;5050278;28;20448;-65
2021/10/02 13:37:37;;;;;;;41.93;7.57;;;21.30;98.70;;;;;;5049771;28;20471;-65
2021/10/02 13:40:05;;;;;;;42.70;8.10;;;21.20;99.10;;;;;;5050226;28;20455;-65
2021/10/02 13:42:34;;;;;;;48.80;8.40;;;21.10;99.70;;;;;;5049710;28;20579;-65
2021/10/02 13:45:01;;;;;;;42.93;10.30;;;21.20;97.40;;;;;;5050258;28;20450;-66
2021/10/02 13:47:28;;;;;;;42.27;7.57;;;21.10;99.00;;;;;;5049377;28;20974;-65
2021/10/02 13:49:55;;;;;;;42.03;7.17;;;21.00;99.70;;;;;;5050026;28;20526;-65
2021/10/02 13:52:24;;;;;;;42.80;7.60;;;20.90;99.70;;;;;;5049095;28;20471;-64
2021/10/02 13:54:51;;;;;;;43.10;9.60;;;20.90;99.50;;;;;;5050175;28;20444;-65
2021/10/02 13:57:17;;;;;;;43.40;8.20;;;20.80;99.70;;;;;;5054772;28;20466;-65
2021/10/02 13:59:45;;;;;;;43.17;9.33;;;20.70;99.70;;;;;;5057458;28;20451;-65
2021/10/02 14:02:12;;;;;;;44.57;6.97;;;20.60;99.70;;;;;;5055273;28;20529;-65
2021/10/02 14:04:39;;;;;;;41.60;6.60;;;20.60;99.70;;;;;;5051762;28;20471;-65
2021/10/02 14:07:07;;;;;;;42.03;8.27;;;20.60;99.60;;;;;;5049131;28;20467;-65
2021/10/02 14:09:35;;;;;;;42.67;6.50;;;20.50;99.70;;;;;;5050488;28;20501;-64
2021/10/02 14:12:03;;;;;;;45.53;7.80;;;20.60;99.70;;;;;;5059420;28;20476;-64
2021/10/02 14:14:29;;;;;;;43.80;8.70;;;20.50;99.70;;;;;;5059489;28;20449;-65
2021/10/02 14:16:56;;;;;;;44.77;7.00;;;20.40;99.70;;;;;;5061179;28;20466;-64
2021/10/02 14:19:23;;;;;;;43.60;7.70;;;20.40;99.70;;;;;;5069985;28;20873;-64
2021/10/02 14:21:50;;;;;;;41.30;7.10;;;20.40;99.70;;;;;;5061524;28;20479;-64
2021/10/02 14:24:16;;;;;;;41.43;6.60;;;20.40;99.70;;;;;;5048853;28;20821;-65
2021/10/02 14:26:46;;;;;;;42.87;7.90;;;20.40;99.70;;;;;;5061718;23;20496;-65
2021/10/02 14:29:13;;;;;;;43.33;7.43;;;20.40;99.70;;;;;;5048359;28;20532;-66
2021/10/02 14:31:39;;;;;;;42.67;7.43;;;20.40;99.70;;;;;;5048207;28;20466;-66
2021/10/02 14:34:07;;;;;;;41.87;7.00;;;20.50;99.70;;;;;;5053964;28;20443;-65
2021/10/02 14:36:36;;;;;;;41.50;7.37;;;20.50;99.70;;;;;;5045502;28;20464;-65
2021/10/02 14:39:04;;;;;;;42.27;6.63;;;20.60;99.70;;;;;;5029708;28;20954;-65
2021/10/02 14:41:31;;;;;;;43.00;7.53;;;20.60;99.70;;;;;;5029328;28;20856;-66
2021/10/02 14:43:59;;;;;;;40.97;6.20;;;20.60;99.70;;;;;;5029601;28;20449;-65
2021/10/02 14:46:26;;;;;;;42.07;7.23;;;20.50;99.70;;;;;;5029488;28;20448;-65
2021/10/02 14:48:54;;;;;;;43.80;7.63;;;20.60;99.70;;;;;;5029614;28;20796;-66
2021/10/02 14:51:22;;;;;;;45.10;7.73;;;20.70;99.00;;;;;;5029290;28;20955;-66
2021/10/02 14:53:49;;;;;;;43.10;7.33;;;20.60;99.70;;;;;;5028700;28;20832;-66
2021/10/02 14:56:16;;;;;;;44.73;8.13;;;20.60;99.70;;;;;;5029277;28;20448;-66
2021/10/02 14:58:44;;;;;;;41.17;6.57;;;20.50;99.70;;;;;;5029634;28;20444;-66
2021/10/02 15:01:13;;;;;;;42.23;6.87;;;20.50;99.70;;;;;;5029173;28;20824;-66
2021/10/02 15:03:42;;;;;;;45.17;6.40;;;20.40;99.70;;;;;;5029389;28;20484;-66
2021/10/02 15:06:09;;;;;;;44.10;6.87;;;20.50;99.70;;;;;;5029225;28;20463;-65
2021/10/02 15:08:37;;;;;;;42.13;6.73;;;20.50;99.70;;;;;;5029544;28;20524;-65
2021/10/02 15:11:04;;;;;;;40.77;6.20;;;20.50;99.70;;;;;;5029096;28;20452;-65
2021/10/02 15:13:31;;;;;;;42.73;8.33;;;20.50;99.70;;;;;;5029271;28;20536;-65
2021/10/02 15:15:58;;;;;;;42.50;7.50;;;20.50;99.70;;;;;;5029299;28;20965;-65
2021/10/02 15:18:28;;;;;;;41.70;7.17;;;20.50;99.70;;;;;;5029343;28;20987;-65
2021/10/02 15:20:59;;;;;;;42.30;7.10;;;20.50;99.70;;;;;;5029099;28;20444;-65
2021/10/02 15:23:31;;;;;;;40.93;5.87;;;20.40;99.70;;;;;;5029321;28;20508;-66
2021/10/02 15:26:01;;;;;;;41.43;6.17;;;20.30;99.70;;;;;;5029279;28;20449;-66
2021/10/02 15:28:32;;;;;;;42.80;7.10;;;20.20;99.70;;;;;;5029120;28;20484;-65
2021/10/02 15:30:59;;;;;;;44.60;7.30;;;20.20;99.70;;;;;;5028417;28;20448;-65
2021/10/02 15:33:28;;;;;;;42.50;6.40;;;20.30;99.70;;;;;;5029134;28;20449;-65
2021/10/02 15:35:56;;;;;;;41.80;6.60;;;20.20;99.70;;;;;;5029538;28;20875;-65
2021/10/02 15:38:23;;;;;;;42.50;6.60;;;20.10;99.70;;;;;;5031819;28;20839;-65
2021/10/02 15:40:51;;;;;;;41.67;6.40;;;20.00;99.70;;;;;;5041504;28;20456;-66
2021/10/02 15:43:18;;;;;;;44.77;8.70;;;20.10;99.70;;;;;;5015780;28;20484;-65
2021/10/02 15:45:47;;;;;;;43.60;7.60;;;20.10;99.70;;;;;;5013535;28;20506;-65
2021/10/02 15:48:14;;;;;;;43.50;7.10;;;19.90;99.70;;;;;;5025844;28;20480;-65
2021/10/02 15:50:46;;;;;;;43.10;7.73;;;19.80;99.70;;;;;;5017045;28;20453;-65
2021/10/02 15:53:13;;;;;;;45.17;10.60;;;19.70;99.70;;;;;;5023055;28;20460;-65
2021/10/02 15:55:41;;;;;;;44.90;10.07;;;19.60;99.70;;;;;;5032629;28;20445;-65
2021/10/02 15:58:09;;;;;;;44.90;9.33;;;19.60;99.70;;;;;;5031945;28;20522;-65
2021/10/02 16:00:41;;;;;;;46.00;11.40;;;19.70;99.70;;;;;;5033662;28;20459;-65
2021/10/02 16:03:10;;;;;;;46.00;11.43;;;19.60;99.70;;;;;;5029226;28;20484;-64
2021/10/02 16:05:45;;;;;;;47.43;12.70;;;19.70;99.70;;;;;;5015998;28;20456;-64
2021/10/02 16:08:16;;;;;;;46.53;13.47;;;19.70;99.70;;;;;;5024663;28;20468;-65
2021/10/02 16:10:44;;;;;;;50.27;14.00;;;19.50;99.70;;;;;;5030085;28;20861;-64
2021/10/02 16:13:11;;;;;;;47.80;12.37;;;19.50;99.70;;;;;;5022499;28;20449;-65
2021/10/02 16:15:39;;;;;;;47.13;13.73;;;19.60;99.70;;;;;;5018692;28;20460;-64
2021/10/02 16:18:08;;;;;;;47.40;13.20;;;19.40;99.70;;;;;;5020582;28;20461;-66
2021/10/02 16:20:36;;;;;;;46.70;14.83;;;19.30;99.70;;;;;;5029932;28;20829;-65
2021/10/02 16:23:04;;;;;;;47.63;14.53;;;19.30;99.70;;;;;;5031648;28;20480;-65
2021/10/02 16:25:33;;;;;;;49.23;16.57;;;19.30;99.70;;;;;;5031834;28;20444;-64
2021/10/02 16:28:00;;;;;;;49.43;15.30;;;19.10;99.70;;;;;;5031474;28;21018;-64
2021/10/02 16:30:28;;;;;;;48.30;17.40;;;19.00;99.70;;;;;;5031395;28;20445;-64
2021/10/02 16:32:56;;;;;;;45.47;11.80;;;18.90;99.70;;;;;;5030097;28;20452;-65
2021/10/02 16:35:24;;;;;;;48.40;12.03;;;18.90;99.70;;;;;;5015824;28;20463;-66
2021/10/02 16:37:52;;;;;;;46.70;11.20;;;19.00;99.70;;;;;;5016722;28;20491;-66
2021/10/02 16:40:20;;;;;;;47.57;12.40;;;19.10;99.70;;;;;;5022468;28;20457;-66
2021/10/02 16:42:50;;;;;;;44.80;11.63;;;19.00;99.70;;;;;;5031500;28;21002;-66
2021/10/02 16:45:18;;;;;;;46.90;12.57;;;18.90;99.70;;;;;;5022993;28;20456;-65